Time;durP1;ratioP1;P1;durP2;ratioP2;P2;SDS_P1;SDS_P2;PMS_P1;PMS_P2;Temp;Humidity;BMP_temperature;BMP_pressure;BME280_temperature;BME280_humidity;BME280_pressure;Samples;Min_cycle;Max_cycle;Signal;HPM_P1;HPM_P2
2023/06/29 00:01:56;;;;;;;6.60;4.60;;;19.40;99.90;;;;;;5039179;28;20022;-54
2023/06/29 00:04:42;;;;;;;6.40;4.38;;;19.40;99.90;;;;;;5046706;28;20112;-55
2023/06/29 00:07:29;;;;;;;9.82;5.68;;;19.40;99.90;;;;;;5037905;28;20057;-53
2023/06/29 00:10:15;;;;;;;7.40;4.65;;;19.40;99.90;;;;;;5036653;28;20032;-56
2023/06/29 00:13:01;;;;;;;5.65;4.75;;;19.30;99.90;;;;;;5036717;28;20022;-53
2023/06/29 00:15:48;;;;;;;6.55;4.85;;;19.20;99.90;;;;;;5036935;28;20037;-55
2023/06/29 00:18:37;;;;;;;5.88;4.93;;;19.10;99.90;;;;;;5037289;28;20026;-55
2023/06/29 00:21:23;;;;;;;9.20;4.53;;;19.00;99.70;;;;;;5036706;28;20029;-53
2023/06/29 00:24:11;;;;;;;7.45;5.13;;;19.00;99.70;;;;;;5036269;28;20033;-53
2023/06/29 00:26:58;;;;;;;5.72;4.57;;;19.00;99.70;;;;;;5033634;28;20061;-53
2023/06/29 00:29:44;;;;;;;8.90;4.93;;;18.90;99.80;;;;;;5033011;28;20025;-53
2023/06/29 00:32:30;;;;;;;7.15;4.78;;;18.90;99.70;;;;;;5030459;28;20029;-54
2023/06/29 00:35:16;;;;;;;12.70;5.13;;;18.80;99.90;;;;;;5025593;28;20494;-54
2023/06/29 00:38:02;;;;;;;7.68;4.63;;;18.80;99.50;;;;;;5025539;28;20030;-54
2023/06/29 00:40:48;;;;;;;6.95;4.97;;;18.70;99.80;;;;;;5033579;28;20051;-55
2023/06/29 00:43:34;;;;;;;9.23;5.50;;;18.60;99.90;;;;;;5035410;28;20029;-51
2023/06/29 00:46:20;;;;;;;5.22;4.72;;;18.50;99.90;;;;;;5035536;28;20037;-54
2023/06/29 00:49:06;;;;;;;6.85;4.70;;;18.30;99.90;;;;;;5034792;28;20108;-54
2023/06/29 00:51:53;;;;;;;5.93;5.13;;;18.30;99.90;;;;;;5034553;28;20029;-52
2023/06/29 00:54:39;;;;;;;7.30;5.43;;;18.20;99.90;;;;;;5034978;28;20024;-59
2023/06/29 00:57:25;;;;;;;6.90;5.10;;;18.20;99.90;;;;;;5034903;28;20060;-51
2023/06/29 01:00:12;;;;;;;5.53;5.03;;;18.20;99.90;;;;;;5035699;28;20030;-51
2023/06/29 01:02:58;;;;;;;5.38;4.63;;;18.30;99.90;;;;;;5034502;28;20414;-52
2023/06/29 01:05:45;;;;;;;8.02;5.47;;;18.40;99.90;;;;;;5034347;28;20044;-51
2023/06/29 01:08:40;;;;;;;6.97;4.95;;;18.40;99.90;;;;;;5034119;28;20087;-56
2023/06/29 01:11:26;;;;;;;7.05;4.68;;;18.40;99.90;;;;;;5033915;28;20029;-53
2023/06/29 01:14:15;;;;;;;5.75;4.63;;;18.50;99.90;;;;;;5035376;28;20112;-53
2023/06/29 01:17:02;;;;;;;7.50;4.55;;;18.50;99.90;;;;;;5035041;28;20104;-54
2023/06/29 01:19:50;;;;;;;6.85;4.78;;;18.40;99.90;;;;;;5035340;28;20024;-53
2023/06/29 01:22:41;;;;;;;6.70;5.10;;;18.30;99.90;;;;;;5035105;28;20026;-55
2023/06/29 01:25:27;;;;;;;6.07;5.05;;;18.20;99.90;;;;;;5034991;28;20056;-52
2023/06/29 01:28:13;;;;;;;5.93;4.80;;;18.10;99.90;;;;;;5034212;28;20032;-54
2023/06/29 01:31:02;;;;;;;7.03;4.82;;;18.10;99.90;;;;;;5033692;28;20055;-57
2023/06/29 01:33:48;;;;;;;8.90;5.35;;;18.10;99.90;;;;;;5015557;28;20026;-55
2023/06/29 01:36:40;;;;;;;7.50;4.85;;;18.00;99.90;;;;;;5022338;28;20089;-56
2023/06/29 01:39:29;;;;;;;5.75;4.38;;;18.00;99.90;;;;;;5028536;28;20014;-56
2023/06/29 01:42:15;;;;;;;5.22;4.72;;;18.00;99.90;;;;;;5045969;28;20028;-53
2023/06/29 01:45:04;;;;;;;7.38;5.40;;;18.10;99.90;;;;;;5025547;28;20446;-52
2023/06/29 01:47:50;;;;;;;9.27;5.10;;;18.10;99.90;;;;;;5034684;28;20568;-53
2023/06/29 01:50:36;;;;;;;6.88;4.72;;;18.10;99.90;;;;;;5034422;28;20383;-55
2023/06/29 01:53:22;;;;;;;7.82;4.70;;;18.10;99.90;;;;;;5032847;28;20021;-57
2023/06/29 01:56:08;;;;;;;5.82;4.60;;;18.10;99.90;;;;;;5034317;28;20029;-56
2023/06/29 01:58:54;;;;;;;6.45;4.60;;;18.20;99.90;;;;;;5031884;28;20056;-55
2023/06/29 02:01:40;;;;;;;6.18;4.50;;;18.20;99.90;;;;;;5036206;28;20029;-57
2023/06/29 02:04:26;;;;;;;5.75;4.53;;;18.20;99.90;;;;;;5033178;28;20038;-52
2023/06/29 02:07:12;;;;;;;6.90;5.53;;;18.20;99.90;;;;;;5033231;28;20076;-55
2023/06/29 02:09:58;;;;;;;5.38;4.70;;;18.10;99.90;;;;;;5033504;28;20061;-53
2023/06/29 02:12:44;;;;;;;8.60;5.70;;;18.00;99.90;;;;;;5032752;28;20422;-53
2023/06/29 02:15:30;;;;;;;7.30;4.72;;;18.00;99.90;;;;;;5033795;28;20029;-55
2023/06/29 02:18:16;;;;;;;8.95;5.30;;;17.90;99.90;;;;;;5028598;28;20032;-53
2023/06/29 02:21:02;;;;;;;6.78;4.50;;;17.90;99.90;;;;;;5024226;28;20054;-55
2023/06/29 02:23:48;;;;;;;7.43;5.07;;;17.90;99.90;;;;;;5014570;28;20108;-55
2023/06/29 02:26:34;;;;;;;7.40;4.60;;;17.90;99.90;;;;;;5012494;28;20054;-54
2023/06/29 02:29:20;;;;;;;7.00;5.13;;;17.80;99.90;;;;;;5013583;28;20044;-55
2023/06/29 02:32:07;;;;;;;6.18;5.00;;;17.80;99.90;;;;;;5017657;28;20075;-54
2023/06/29 02:34:53;;;;;;;6.45;4.78;;;17.80;99.90;;;;;;5033226;28;20397;-56
2023/06/29 02:37:39;;;;;;;7.35;4.70;;;17.80;99.90;;;;;;5033797;28;20120;-54
2023/06/29 02:40:25;;;;;;;5.75;4.88;;;17.90;99.90;;;;;;5031932;28;20116;-56
2023/06/29 02:43:11;;;;;;;6.82;5.10;;;17.90;99.90;;;;;;5033447;28;20491;-56
2023/06/29 02:45:57;;;;;;;6.18;5.20;;;18.00;99.90;;;;;;5034037;28;20033;-54
2023/06/29 02:48:43;;;;;;;5.40;4.90;;;17.90;99.90;;;;;;5035900;28;20028;-54
2023/06/29 02:51:29;;;;;;;7.38;5.57;;;17.80;99.90;;;;;;5034095;28;20116;-55
2023/06/29 02:54:15;;;;;;;6.57;5.38;;;17.60;99.90;;;;;;5034085;28;20104;-54
2023/06/29 02:57:01;;;;;;;7.35;4.80;;;17.50;99.90;;;;;;5013471;28;20080;-53
2023/06/29 02:59:47;;;;;;;7.47;4.97;;;17.40;99.90;;;;;;5014131;28;20076;-52
2023/06/29 03:02:32;;;;;;;8.27;5.05;;;17.40;99.90;;;;;;5012992;28;20552;-55
2023/06/29 03:05:18;;;;;;;8.30;5.63;;;17.30;99.90;;;;;;5011930;28;20442;-52
2023/06/29 03:08:04;;;;;;;6.85;4.95;;;17.40;99.90;;;;;;5012815;28;20553;-55
2023/06/29 03:10:51;;;;;;;6.93;5.55;;;17.40;99.90;;;;;;5032846;28;20462;-50
2023/06/29 03:13:37;;;;;;;7.68;5.32;;;17.40;99.90;;;;;;5032145;28;20026;-53
2023/06/29 03:16:23;;;;;;;6.07;5.45;;;17.40;99.90;;;;;;5031836;28;20030;-55
2023/06/29 03:19:09;;;;;;;6.47;5.03;;;17.40;99.90;;;;;;5032195;28;20075;-54
2023/06/29 03:21:55;;;;;;;8.05;4.80;;;17.40;99.90;;;;;;5032937;28;20084;-54
2023/06/29 03:24:40;;;;;;;5.60;4.78;;;17.40;99.90;;;;;;5031542;28;20025;-54
2023/06/29 03:27:26;;;;;;;6.80;5.03;;;17.40;99.90;;;;;;5031197;28;20039;-52
2023/06/29 03:30:12;;;;;;;6.70;5.40;;;17.50;99.90;;;;;;5033512;28;20036;-55
2023/06/29 03:32:59;;;;;;;5.88;4.65;;;17.50;99.90;;;;;;5031334;28;20041;-52
2023/06/29 03:35:45;;;;;;;6.40;4.50;;;17.60;99.90;;;;;;5032972;28;20026;-53
2023/06/29 03:38:31;;;;;;;5.88;5.28;;;17.60;99.90;;;;;;5033378;28;20030;-53
2023/06/29 03:41:17;;;;;;;7.22;4.97;;;17.70;99.90;;;;;;5031772;28;20030;-56
2023/06/29 03:44:03;;;;;;;6.00;5.20;;;17.60;99.90;;;;;;5032831;28;20057;-54
2023/06/29 03:46:49;;;;;;;6.78;4.90;;;17.60;99.90;;;;;;5032031;28;20041;-54
2023/06/29 03:49:35;;;;;;;8.80;5.38;;;17.60;99.90;;;;;;5030252;28;20115;-54
2023/06/29 03:52:21;;;;;;;9.80;5.80;;;17.60;99.90;;;;;;5012664;28;20030;-50
2023/06/29 03:55:08;;;;;;;6.55;5.85;;;17.70;99.90;;;;;;5027443;28;20019;-53
2023/06/29 03:57:57;;;;;;;9.13;5.72;;;17.70;99.90;;;;;;5019811;28;20045;-52
2023/06/29 04:00:44;;;;;;;9.50;5.40;;;17.70;99.90;;;;;;5012821;28;20034;-55
2023/06/29 04:03:30;;;;;;;7.15;5.22;;;17.70;99.90;;;;;;5012605;28;20029;-56
2023/06/29 04:06:16;;;;;;;11.85;7.13;;;17.60;99.90;;;;;;5031059;28;20029;-54
2023/06/29 04:09:02;;;;;;;6.32;5.50;;;17.50;99.90;;;;;;5034796;28;20107;-56
2023/06/29 04:11:48;;;;;;;8.02;6.10;;;17.40;99.90;;;;;;5037400;28;20518;-51
2023/06/29 04:14:34;;;;;;;7.22;5.95;;;17.40;99.90;;;;;;5033958;28;20091;-56
2023/06/29 04:17:20;;;;;;;9.27;6.28;;;17.30;99.90;;;;;;5034181;28;20068;-53
2023/06/29 04:20:07;;;;;;;9.30;6.53;;;17.30;99.90;;;;;;5035614;28;20095;-56
2023/06/29 04:22:53;;;;;;;6.70;6.05;;;17.30;99.90;;;;;;5036613;28;20422;-55
2023/06/29 04:25:42;;;;;;;6.65;5.95;;;17.40;99.90;;;;;;5035171;28;20049;-55
2023/06/29 04:28:28;;;;;;;6.72;5.65;;;17.40;99.90;;;;;;5036784;28;20026;-51
2023/06/29 04:31:14;;;;;;;9.30;6.00;;;17.40;99.90;;;;;;5047345;28;20033;-57
2023/06/29 04:34:02;;;;;;;8.32;6.85;;;17.40;99.90;;;;;;5046161;28;20564;-55
2023/06/29 04:36:48;;;;;;;6.93;5.80;;;17.50;99.90;;;;;;5035325;28;20022;-54
2023/06/29 04:39:34;;;;;;;6.40;5.80;;;17.60;99.90;;;;;;5035877;28;20030;-53
2023/06/29 04:42:25;;;;;;;8.73;5.78;;;17.60;99.90;;;;;;5034549;28;20026;-52
2023/06/29 04:45:17;;;;;;;8.07;7.00;;;17.70;99.90;;;;;;5034567;28;20021;-57
2023/06/29 04:48:03;;;;;;;8.15;7.35;;;17.70;99.90;;;;;;5033784;28;20029;-56
2023/06/29 04:50:49;;;;;;;10.30;7.60;;;17.80;99.90;;;;;;5034101;28;20030;-56
2023/06/29 04:53:38;;;;;;;11.05;7.07;;;17.90;99.90;;;;;;5036677;28;20053;-59
2023/06/29 04:56:24;;;;;;;12.30;9.52;;;18.00;99.90;;;;;;5037125;28;20510;-57
2023/06/29 04:59:10;;;;;;;9.35;7.20;;;18.10;99.90;;;;;;5039152;28;20438;-56
2023/06/29 05:01:56;;;;;;;9.88;7.28;;;18.10;99.90;;;;;;5037079;28;20032;-51
2023/06/29 05:04:42;;;;;;;8.27;6.22;;;18.10;99.90;;;;;;5034380;28;20447;-51
2023/06/29 05:07:28;;;;;;;7.60;6.70;;;18.30;99.90;;;;;;5033632;28;20052;-52
2023/06/29 05:10:14;;;;;;;8.45;6.80;;;18.40;99.90;;;;;;5033748;28;20490;-54
2023/06/29 05:13:00;;;;;;;7.82;6.57;;;18.40;99.90;;;;;;5033329;28;20044;-56
2023/06/29 05:15:47;;;;;;;7.50;6.47;;;18.40;99.90;;;;;;5018962;28;20108;-54
2023/06/29 05:18:36;;;;;;;11.63;7.18;;;18.40;99.90;;;;;;5032813;28;20100;-54
2023/06/29 05:21:22;;;;;;;8.43;6.28;;;18.50;99.90;;;;;;5033402;28;20029;-53
2023/06/29 05:24:08;;;;;;;8.45;7.50;;;18.60;99.90;;;;;;5034076;28;20048;-57
2023/06/29 05:26:54;;;;;;;10.30;7.28;;;18.70;99.90;;;;;;5033841;28;20047;-56
2023/06/29 05:29:39;;;;;;;10.73;7.93;;;18.90;99.90;;;;;;5034171;28;20030;-52
2023/06/29 05:32:26;;;;;;;8.50;6.72;;;18.90;99.90;;;;;;5034476;28;20085;-55
2023/06/29 05:35:12;;;;;;;11.60;7.28;;;19.00;99.90;;;;;;5034346;28;20025;-57
2023/06/29 05:37:58;;;;;;;8.38;7.20;;;19.10;99.90;;;;;;5033005;28;20025;-54
2023/06/29 05:40:44;;;;;;;17.15;11.80;;;19.20;99.90;;;;;;5034376;28;20029;-51
2023/06/29 05:43:30;;;;;;;10.02;7.55;;;19.30;99.90;;;;;;5036780;28;20144;-55
2023/06/29 05:46:16;;;;;;;8.57;7.15;;;19.40;99.90;;;;;;5037731;28;20040;-57
2023/06/29 05:49:02;;;;;;;8.70;6.40;;;19.40;99.90;;;;;;5035723;28;20045;-52
2023/06/29 05:51:48;;;;;;;9.50;6.53;;;19.60;99.90;;;;;;5032905;28;20112;-56
2023/06/29 05:54:34;;;;;;;8.68;7.00;;;19.70;99.90;;;;;;5034034;28;20029;-55
2023/06/29 05:57:20;;;;;;;17.40;15.45;;;19.90;99.90;;;;;;5034372;28;20029;-56
2023/06/29 06:00:11;;;;;;;16.33;14.25;;;20.00;99.90;;;;;;5033312;28;20037;-56
2023/06/29 06:02:57;;;;;;;11.30;7.47;;;20.20;99.60;;;;;;5031320;28;20037;-56
2023/06/29 06:05:43;;;;;;;9.05;6.65;;;20.40;99.20;;;;;;5032617;28;20072;-53
2023/06/29 06:08:29;;;;;;;8.25;5.75;;;20.40;99.00;;;;;;5040261;28;20033;-56
2023/06/29 06:11:15;;;;;;;6.32;5.38;;;20.50;98.90;;;;;;5044243;28;20036;-56
2023/06/29 06:14:01;;;;;;;10.13;6.22;;;20.70;98.60;;;;;;5031874;28;20028;-52
2023/06/29 06:16:47;;;;;;;6.85;5.75;;;20.80;98.10;;;;;;5033668;28;20052;-53
2023/06/29 06:19:33;;;;;;;11.57;5.85;;;21.00;97.80;;;;;;5032565;28;20064;-54
2023/06/29 06:22:19;;;;;;;7.63;5.45;;;21.10;97.50;;;;;;5032522;28;20037;-55
2023/06/29 06:25:05;;;;;;;8.82;5.72;;;21.10;97.90;;;;;;5032208;28;20092;-55
2023/06/29 06:27:51;;;;;;;7.45;5.15;;;21.20;96.80;;;;;;5032261;28;20521;-55
2023/06/29 06:30:38;;;;;;;8.57;5.82;;;21.20;96.40;;;;;;5032529;28;20088;-54
2023/06/29 06:33:24;;;;;;;8.27;5.20;;;21.00;96.20;;;;;;5031477;28;20029;-55
2023/06/29 06:36:10;;;;;;;6.90;5.40;;;20.90;96.30;;;;;;5032007;28;20029;-55
2023/06/29 06:38:56;;;;;;;7.25;4.88;;;20.90;96.10;;;;;;5033067;28;20497;-55
2023/06/29 06:41:42;;;;;;;7.47;4.65;;;20.90;95.90;;;;;;5030769;28;20401;-55
2023/06/29 06:44:28;;;;;;;6.97;4.78;;;20.80;95.70;;;;;;5034253;28;20026;-55
2023/06/29 06:47:14;;;;;;;11.88;5.38;;;20.90;95.60;;;;;;5041962;28;20045;-57
2023/06/29 06:50:00;;;;;;;12.63;5.32;;;20.90;95.80;;;;;;5043387;28;20041;-53
2023/06/29 06:52:47;;;;;;;14.32;6.30;;;21.10;96.10;;;;;;5035802;28;20025;-55
2023/06/29 06:55:33;;;;;;;10.20;5.57;;;21.20;96.10;;;;;;5033917;28;20390;-56
2023/06/29 06:58:19;;;;;;;7.90;5.20;;;21.40;96.10;;;;;;5032741;28;20025;-52
2023/06/29 07:01:07;;;;;;;9.80;5.50;;;21.50;95.70;;;;;;5029387;28;20065;-56
2023/06/29 07:03:53;;;;;;;8.52;4.55;;;21.60;95.70;;;;;;5031341;28;20296;-56
2023/06/29 07:06:39;;;;;;;14.07;5.30;;;21.80;94.40;;;;;;5033299;28;20092;-53
2023/06/29 07:09:25;;;;;;;8.52;5.00;;;21.80;93.90;;;;;;5031915;28;20164;-54
2023/06/29 07:12:10;;;;;;;10.75;5.25;;;21.90;93.40;;;;;;5030378;28;20064;-57
2023/06/29 07:14:56;;;;;;;8.70;4.63;;;22.00;93.30;;;;;;5033094;28;20048;-54
2023/06/29 07:17:43;;;;;;;7.53;4.80;;;22.10;93.00;;;;;;5012760;28;20208;-54
2023/06/29 07:20:29;;;;;;;8.15;4.80;;;22.30;92.40;;;;;;5013256;28;20038;-53
2023/06/29 07:23:18;;;;;;;6.47;4.80;;;22.40;92.10;;;;;;5021993;28;20502;-54
2023/06/29 07:26:04;;;;;;;8.70;4.50;;;22.50;92.20;;;;;;5032035;28;20030;-54
2023/06/29 07:28:50;;;;;;;6.45;4.40;;;22.70;92.30;;;;;;5030935;28;20530;-56
2023/06/29 07:31:36;;;;;;;7.47;4.60;;;22.80;91.90;;;;;;5030358;28;20112;-56
2023/06/29 07:34:25;;;;;;;7.07;4.03;;;22.90;91.00;;;;;;5033210;28;20502;-55
2023/06/29 07:37:10;;;;;;;7.70;4.43;;;22.80;90.80;;;;;;5031364;28;20391;-53
2023/06/29 07:39:56;;;;;;;11.05;4.57;;;22.80;91.10;;;;;;5032050;28;20514;-53
2023/06/29 07:42:43;;;;;;;12.70;6.50;;;22.80;90.80;;;;;;5033127;28;20033;-57
2023/06/29 07:45:28;;;;;;;7.88;4.90;;;22.70;91.20;;;;;;5027464;28;20065;-53
2023/06/29 07:48:14;;;;;;;5.47;4.03;;;22.90;91.10;;;;;;5060840;28;20029;-56
2023/06/29 07:51:01;;;;;;;7.05;3.90;;;23.00;90.70;;;;;;5032045;28;20033;-56
2023/06/29 07:53:48;;;;;;;7.18;3.88;;;23.00;90.70;;;;;;5048833;28;20465;-55
2023/06/29 07:56:34;;;;;;;7.25;3.75;;;23.20;90.00;;;;;;5033833;28;20048;-52
2023/06/29 07:59:20;;;;;;;11.45;7.97;;;23.10;90.00;;;;;;5036908;28;20045;-56
2023/06/29 08:02:06;;;;;;;5.57;3.80;;;23.00;90.20;;;;;;5017713;28;20042;-62
2023/06/29 08:04:52;;;;;;;7.60;3.78;;;22.90;90.40;;;;;;5019271;28;20038;-61
2023/06/29 08:07:37;;;;;;;7.63;4.20;;;22.90;90.50;;;;;;5031153;28;20064;-58
2023/06/29 08:10:23;;;;;;;7.50;3.95;;;22.90;91.00;;;;;;5034007;28;20100;-59
2023/06/29 08:13:09;;;;;;;8.43;3.92;;;23.00;91.00;;;;;;5033933;28;20029;-57
2023/06/29 08:15:55;;;;;;;7.20;4.10;;;23.10;90.70;;;;;;5028464;28;20180;-57
2023/06/29 08:18:41;;;;;;;7.82;4.10;;;23.10;90.80;;;;;;5034043;28;20029;-59
2023/06/29 08:21:27;;;;;;;17.63;13.07;;;23.10;90.10;;;;;;5035957;28;20028;-57
2023/06/29 08:24:14;;;;;;;7.30;4.30;;;23.30;90.30;;;;;;5036005;28;20282;-57
2023/06/29 08:27:00;;;;;;;6.00;3.80;;;23.30;89.00;;;;;;5036102;28;20041;-56
2023/06/29 08:29:46;;;;;;;9.85;4.45;;;23.40;89.10;;;;;;5061377;28;20030;-58
2023/06/29 08:32:32;;;;;;;10.15;4.30;;;23.50;88.00;;;;;;5034274;28;20045;-57
2023/06/29 08:35:18;;;;;;;8.30;4.22;;;23.50;88.20;;;;;;5036031;28;20022;-57
2023/06/29 08:38:05;;;;;;;8.02;3.72;;;23.50;86.10;;;;;;5033362;28;20037;-57
2023/06/29 08:40:51;;;;;;;5.13;3.28;;;23.70;86.10;;;;;;5037225;28;20025;-58
2023/06/29 08:43:37;;;;;;;7.07;3.10;;;23.80;84.30;;;;;;5036493;28;20104;-58
2023/06/29 08:46:23;;;;;;;4.65;3.72;;;23.80;82.40;;;;;;5034204;28;20026;-59
2023/06/29 08:49:11;;;;;;;5.32;3.17;;;23.70;83.10;;;;;;5037071;28;20026;-59
2023/06/29 08:52:03;;;;;;;6.82;3.45;;;23.80;81.50;;;;;;5034012;28;20044;-55
2023/06/29 08:54:51;;;;;;;5.40;3.17;;;23.80;81.60;;;;;;5034380;28;20030;-56
2023/06/29 08:57:38;;;;;;;5.63;4.05;;;24.00;81.00;;;;;;5028884;28;20061;-58
2023/06/29 09:00:26;;;;;;;5.22;3.30;;;24.00;82.10;;;;;;5039381;28;20203;-59
2023/06/29 09:03:13;;;;;;;5.45;3.30;;;24.00;80.50;;;;;;5042964;28;20441;-60
2023/06/29 09:05:59;;;;;;;5.97;3.38;;;24.10;80.50;;;;;;5034072;28;20099;-58
2023/06/29 09:08:45;;;;;;;7.47;3.63;;;24.30;81.40;;;;;;5034131;28;20116;-60
2023/06/29 09:11:34;;;;;;;5.07;3.47;;;24.30;81.10;;;;;;5033896;28;20486;-58
2023/06/29 09:14:22;;;;;;;6.18;3.75;;;24.50;80.00;;;;;;5035285;28;20036;-59
2023/06/29 09:17:14;;;;;;;6.57;5.25;;;24.60;80.30;;;;;;5028966;28;20558;-59
2023/06/29 09:20:07;;;;;;;8.10;5.07;;;24.60;79.50;;;;;;5030113;28;20018;-58
2023/06/29 09:22:53;;;;;;;10.73;3.67;;;24.70;79.50;;;;;;5033295;28;20044;-60
2023/06/29 09:25:39;;;;;;;6.68;3.80;;;24.80;79.10;;;;;;5032285;28;20502;-59
2023/06/29 09:28:26;;;;;;;5.32;3.20;;;24.80;78.70;;;;;;5032277;28;20029;-57
2023/06/29 09:31:12;;;;;;;6.13;3.40;;;24.80;78.60;;;;;;5031207;28;20033;-60
2023/06/29 09:34:17;;;;;;;6.82;3.35;;;24.90;77.90;;;;;;5032835;28;20040;-59
2023/06/29 09:37:04;;;;;;;7.85;4.00;;;25.00;78.30;;;;;;5033064;28;20762;-59
2023/06/29 09:39:57;;;;;;;8.85;3.85;;;24.90;78.50;;;;;;5032330;28;20041;-59
2023/06/29 09:42:43;;;;;;;5.95;3.47;;;25.00;78.70;;;;;;5032581;28;20026;-60
2023/06/29 09:45:31;;;;;;;4.57;4.05;;;25.10;78.70;;;;;;5030882;28;20026;-60
2023/06/29 09:48:21;;;;;;;6.20;3.42;;;25.20;76.80;;;;;;5031705;28;20029;-59
2023/06/29 09:51:08;;;;;;;9.32;3.70;;;25.20;76.70;;;;;;5032383;28;20057;-58
2023/06/29 09:53:54;;;;;;;6.10;3.35;;;25.20;76.60;;;;;;5029282;28;20033;-58
2023/06/29 09:56:44;;;;;;;7.95;3.83;;;25.40;77.60;;;;;;5025696;28;20121;-59
2023/06/29 09:59:34;;;;;;;5.28;3.58;;;25.50;76.80;;;;;;5031624;28;20478;-59
2023/06/29 10:02:20;;;;;;;4.30;3.60;;;25.20;77.90;;;;;;5032013;28;20029;-59
2023/06/29 10:05:08;;;;;;;7.70;3.25;;;25.00;78.50;;;;;;5033162;28;20068;-59
2023/06/29 10:07:56;;;;;;;5.80;4.18;;;25.10;78.70;;;;;;5031025;28;20068;-58
2023/06/29 10:10:43;;;;;;;7.53;3.88;;;25.10;77.90;;;;;;5028255;28;20052;-58
2023/06/29 10:13:31;;;;;;;9.25;4.05;;;25.30;78.70;;;;;;5027845;28;20025;-59
2023/06/29 10:16:21;;;;;;;5.75;3.70;;;25.20;79.00;;;;;;5028220;28;20482;-58
2023/06/29 10:19:18;;;;;;;9.65;4.25;;;25.20;80.10;;;;;;5032605;28;20064;-57
2023/06/29 10:22:07;;;;;;;4.50;3.22;;;25.40;79.90;;;;;;5031409;28;20091;-56
2023/06/29 10:24:57;;;;;;;6.18;3.75;;;25.50;78.20;;;;;;5029360;28;20115;-58
2023/06/29 10:27:43;;;;;;;5.20;3.70;;;25.50;78.90;;;;;;5037541;28;20065;-58
2023/06/29 10:30:44;;;;;;;6.15;3.60;;;25.40;80.20;;;;;;5027544;28;20037;-58
2023/06/29 10:33:29;;;;;;;5.43;3.75;;;25.50;79.10;;;;;;5032345;28;20033;-56
2023/06/29 10:36:19;;;;;;;4.57;3.50;;;25.60;78.80;;;;;;5027535;28;20490;-55
2023/06/29 10:39:37;;;;;;;5.75;3.88;;;25.60;79.20;;;;;;5032837;28;20025;-56
2023/06/29 10:42:23;;;;;;;4.00;3.47;;;25.60;79.10;;;;;;5035322;28;20406;-57
2023/06/29 10:45:09;;;;;;;4.53;3.47;;;25.70;78.80;;;;;;5030957;28;20081;-58
2023/06/29 10:47:57;;;;;;;6.22;3.78;;;26.00;77.60;;;;;;5028221;28;20049;-55
2023/06/29 10:50:46;;;;;;;4.35;3.22;;;26.30;77.60;;;;;;5036440;28;20026;-55
2023/06/29 10:53:34;;;;;;;8.07;3.88;;;26.50;77.20;;;;;;5033862;28;20053;-56
2023/06/29 10:56:30;;;;;;;4.50;3.70;;;26.90;76.60;;;;;;5027472;28;20399;-56
2023/06/29 10:59:17;;;;;;;6.88;3.42;;;27.10;76.10;;;;;;5033447;28;20087;-57
2023/06/29 11:02:03;;;;;;;5.43;3.25;;;27.00;76.40;;;;;;5014300;28;20036;-56
2023/06/29 11:04:50;;;;;;;7.18;3.58;;;26.60;77.00;;;;;;5032591;28;20048;-56
2023/06/29 11:07:37;;;;;;;8.75;3.70;;;26.60;76.90;;;;;;5031802;28;20168;-59
2023/06/29 11:10:23;;;;;;;6.45;3.90;;;26.70;76.50;;;;;;5031774;28;20029;-56
2023/06/29 11:13:09;;;;;;;5.25;3.72;;;26.80;76.00;;;;;;5031469;28;20053;-55
2023/06/29 11:15:56;;;;;;;5.18;3.60;;;26.70;76.80;;;;;;5037773;28;20029;-57
2023/06/29 11:18:49;;;;;;;7.80;4.10;;;26.60;74.90;;;;;;5029590;28;20033;-58
2023/06/29 11:21:35;;;;;;;5.53;3.63;;;26.50;76.10;;;;;;5029510;28;20030;-57
2023/06/29 11:24:22;;;;;;;5.32;3.47;;;26.60;75.20;;;;;;5029183;28;20041;-58
2023/06/29 11:27:08;;;;;;;6.45;3.97;;;26.60;75.00;;;;;;5032094;28;20041;-57
2023/06/29 11:29:56;;;;;;;5.10;3.30;;;26.80;75.30;;;;;;5024331;28;20034;-56
2023/06/29 11:32:42;;;;;;;5.97;3.88;;;27.00;75.30;;;;;;5031726;28;20045;-53
2023/06/29 11:35:29;;;;;;;6.32;3.50;;;26.70;77.20;;;;;;5034587;28;20104;-55
2023/06/29 11:38:15;;;;;;;7.40;3.88;;;26.70;75.40;;;;;;5033070;28;20026;-56
2023/06/29 11:41:04;;;;;;;5.75;3.58;;;26.90;76.50;;;;;;5035139;28;20063;-56
2023/06/29 11:43:51;;;;;;;4.25;3.30;;;27.20;74.90;;;;;;5036702;28;20034;-55
2023/06/29 11:46:38;;;;;;;4.10;3.70;;;27.00;75.90;;;;;;5037248;28;20236;-56
2023/06/29 11:49:25;;;;;;;5.32;3.55;;;27.20;75.90;;;;;;5036602;28;20087;-57
2023/06/29 11:52:11;;;;;;;7.18;3.95;;;27.60;75.20;;;;;;5036555;28;20038;-58
2023/06/29 11:55:02;;;;;;;5.10;3.63;;;27.70;74.20;;;;;;5037281;28;20025;-57
2023/06/29 11:57:50;;;;;;;6.72;3.72;;;27.50;73.50;;;;;;5036545;28;20067;-57
2023/06/29 12:00:36;;;;;;;6.30;3.30;;;27.50;75.20;;;;;;5027108;28;20065;-55
2023/06/29 12:03:23;;;;;;;5.32;3.22;;;27.50;73.70;;;;;;5036727;28;20155;-58
2023/06/29 12:06:09;;;;;;;5.97;3.70;;;27.50;73.50;;;;;;5036168;28;20033;-57
2023/06/29 12:08:55;;;;;;;5.30;3.80;;;27.50;74.90;;;;;;5032157;28;20033;-56
2023/06/29 12:11:41;;;;;;;5.20;3.53;;;27.50;73.80;;;;;;5035828;28;20018;-56
2023/06/29 12:14:29;;;;;;;5.53;3.45;;;27.50;73.60;;;;;;5035613;28;20025;-57
2023/06/29 12:17:23;;;;;;;5.03;3.38;;;27.40;74.00;;;;;;5034751;28;20385;-55
2023/06/29 12:20:16;;;;;;;5.03;3.63;;;27.40;73.80;;;;;;5035534;28;20110;-57
2023/06/29 12:23:03;;;;;;;5.82;4.68;;;27.70;73.00;;;;;;5022135;28;20038;-57
2023/06/29 12:25:51;;;;;;;4.03;3.47;;;27.90;73.40;;;;;;5053566;28;20036;-59
2023/06/29 12:28:38;;;;;;;7.50;3.17;;;28.20;72.50;;;;;;5040542;28;20053;-57
2023/06/29 12:31:28;;;;;;;5.57;3.53;;;28.20;72.20;;;;;;5036047;28;20026;-55
2023/06/29 12:34:14;;;;;;;5.20;3.70;;;28.40;72.50;;;;;;5036332;28;20032;-56
2023/06/29 12:37:02;;;;;;;4.25;3.60;;;28.50;72.40;;;;;;5033706;28;20575;-57
2023/06/29 12:39:48;;;;;;;8.23;3.70;;;28.60;72.10;;;;;;5036048;28;20104;-54
2023/06/29 12:42:35;;;;;;;6.70;3.60;;;28.40;71.60;;;;;;5034318;28;20029;-56
2023/06/29 12:45:21;;;;;;;5.90;3.60;;;28.30;72.10;;;;;;5033521;28;20497;-55
2023/06/29 12:48:07;;;;;;;4.82;3.33;;;28.40;72.60;;;;;;5031252;28;20025;-65
2023/06/29 12:50:59;;;;;;;3.92;3.45;;;28.50;71.90;;;;;;5016278;28;20113;-67
2023/06/29 12:53:45;;;;;;;5.07;3.30;;;28.40;71.40;;;;;;5034764;28;20100;-63
2023/06/29 12:56:31;;;;;;;7.43;4.25;;;27.80;73.50;;;;;;5045777;28;20034;-58
2023/06/29 12:59:17;;;;;;;5.30;3.47;;;27.90;73.70;;;;;;5034644;28;20030;-57
2023/06/29 13:02:05;;;;;;;6.28;4.40;;;27.90;73.40;;;;;;5031274;28;20036;-59
2023/06/29 13:04:51;;;;;;;4.18;3.60;;;28.30;72.80;;;;;;5030129;28;20422;-56
2023/06/29 13:07:37;;;;;;;5.72;3.83;;;28.30;72.40;;;;;;5031215;28;20517;-61
2023/06/29 13:10:23;;;;;;;4.60;3.95;;;28.30;72.80;;;;;;5034849;28;20044;-58
2023/06/29 13:13:09;;;;;;;4.05;3.42;;;28.60;72.80;;;;;;5031456;28;20506;-58
2023/06/29 13:15:55;;;;;;;5.95;3.88;;;28.70;72.40;;;;;;5033140;28;20030;-57
2023/06/29 13:18:41;;;;;;;5.95;4.10;;;28.90;73.10;;;;;;5033394;28;20498;-56
2023/06/29 13:21:27;;;;;;;6.55;3.83;;;29.10;72.70;;;;;;5035374;28;20029;-57
2023/06/29 13:24:14;;;;;;;8.38;4.55;;;28.90;72.50;;;;;;5032517;28;20506;-57
2023/06/29 13:27:02;;;;;;;5.28;3.70;;;28.50;73.50;;;;;;5031493;28;20064;-59
2023/06/29 13:29:48;;;;;;;6.25;3.83;;;28.70;72.00;;;;;;5036030;28;20022;-58
2023/06/29 13:32:34;;;;;;;4.93;4.07;;;28.50;71.90;;;;;;5039899;28;20041;-58
2023/06/29 13:35:21;;;;;;;5.05;3.90;;;28.40;72.40;;;;;;5041229;28;20033;-57
2023/06/29 13:38:07;;;;;;;7.45;3.90;;;28.30;72.30;;;;;;5036494;28;20466;-57
2023/06/29 13:40:53;;;;;;;7.53;4.70;;;28.20;73.20;;;;;;5035684;28;20395;-59
2023/06/29 13:43:39;;;;;;;4.93;4.40;;;28.20;72.70;;;;;;5032260;28;20032;-59
2023/06/29 13:46:25;;;;;;;4.95;4.22;;;28.00;73.40;;;;;;5032693;28;20025;-59
2023/06/29 13:49:11;;;;;;;6.78;4.32;;;27.90;73.60;;;;;;5029511;28;20026;-59
2023/06/29 13:51:57;;;;;;;6.13;4.03;;;28.10;73.30;;;;;;5033874;28;20394;-59
2023/06/29 13:54:43;;;;;;;5.30;4.00;;;28.10;72.40;;;;;;5035788;28;20021;-57
2023/06/29 13:57:30;;;;;;;11.35;5.22;;;28.10;72.60;;;;;;5036538;28;20100;-59
2023/06/29 14:00:16;;;;;;;6.85;4.65;;;28.00;72.90;;;;;;5035421;28;20072;-58
2023/06/29 14:03:03;;;;;;;6.05;4.85;;;28.00;73.70;;;;;;5037166;28;20017;-58
2023/06/29 14:05:49;;;;;;;7.80;4.32;;;28.10;73.50;;;;;;5036743;28;20384;-59
2023/06/29 14:08:35;;;;;;;6.82;4.90;;;28.00;73.50;;;;;;5035421;28;20393;-59
2023/06/29 14:11:23;;;;;;;9.40;5.00;;;28.00;73.30;;;;;;5047371;28;20063;-58
2023/06/29 14:14:09;;;;;;;9.27;7.97;;;28.10;72.90;;;;;;5039957;28;20024;-58
2023/06/29 14:16:56;;;;;;;8.40;5.57;;;28.00;73.30;;;;;;5036345;28;20018;-58
2023/06/29 14:19:41;;;;;;;8.55;4.80;;;27.90;73.70;;;;;;5034232;28;20076;-58
2023/06/29 14:22:27;;;;;;;7.82;5.28;;;27.60;73.20;;;;;;5033144;28;20025;-57
2023/06/29 14:25:13;;;;;;;6.28;4.68;;;27.50;73.20;;;;;;5035060;28;20037;-56
2023/06/29 14:27:59;;;;;;;7.63;4.70;;;27.50;73.70;;;;;;5033729;28;20127;-59